sensor_id;sensor_type;location;lat;lon;timestamp;temperature;humidity
58568;DHT22;44354;46.192;-1.076;2023-04-06T00:01:20;7.50;99.90
58568;DHT22;44354;46.192;-1.076;2023-04-06T00:03:45;7.40;99.90
58568;DHT22;44354;46.192;-1.076;2023-04-06T00:06:11;7.40;99.90
58568;DHT22;44354;46.192;-1.076;2023-04-06T00:08:37;7.40;99.90
58568;DHT22;44354;46.192;-1.076;2023-04-06T00:11:02;7.40;99.90
58568;DHT22;44354;46.192;-1.076;2023-04-06T00:13:28;7.40;99.90
58568;DHT22;44354;46.192;-1.076;2023-04-06T00:15:53;7.40;99.90
58568;DHT22;44354;46.192;-1.076;2023-04-06T00:18:19;7.40;99.90
58568;DHT22;44354;46.192;-1.076;2023-04-06T00:20:44;7.40;99.90
58568;DHT22;44354;46.192;-1.076;2023-04-06T00:23:10;7.40;99.90
58568;DHT22;44354;46.192;-1.076;2023-04-06T00:25:36;7.40;99.90
58568;DHT22;44354;46.192;-1.076;2023-04-06T00:28:01;7.30;99.90
58568;DHT22;44354;46.192;-1.076;2023-04-06T00:30:27;7.30;99.90
58568;DHT22;44354;46.192;-1.076;2023-04-06T00:32:52;7.30;99.90
58568;DHT22;44354;46.192;-1.076;2023-04-06T00:35:18;7.30;99.90
58568;DHT22;44354;46.192;-1.076;2023-04-06T00:37:45;7.40;99.90
58568;DHT22;44354;46.192;-1.076;2023-04-06T00:40:11;7.30;99.90
58568;DHT22;44354;46.192;-1.076;2023-04-06T00:42:36;7.30;99.90
58568;DHT22;44354;46.192;-1.076;2023-04-06T00:45:02;7.30;99.90
58568;DHT22;44354;46.192;-1.076;2023-04-06T00:47:27;7.30;99.90
58568;DHT22;44354;46.192;-1.076;2023-04-06T00:49:53;7.30;99.90
58568;DHT22;44354;46.192;-1.076;2023-04-06T00:52:19;7.30;99.90
58568;DHT22;44354;46.192;-1.076;2023-04-06T00:54:45;7.30;99.90
58568;DHT22;44354;46.192;-1.076;2023-04-06T00:57:11;7.30;99.90
58568;DHT22;44354;46.192;-1.076;2023-04-06T00:59:37;7.30;99.90
58568;DHT22;44354;46.192;-1.076;2023-04-06T01:02:02;7.30;99.90
58568;DHT22;44354;46.192;-1.076;2023-04-06T01:04:28;7.30;99.90
58568;DHT22;44354;46.192;-1.076;2023-04-06T01:06:53;7.30;99.90
58568;DHT22;44354;46.192;-1.076;2023-04-06T01:09:19;7.20;99.90
58568;DHT22;44354;46.192;-1.076;2023-04-06T01:11:44;7.30;99.90
58568;DHT22;44354;46.192;-1.076;2023-04-06T01:14:10;7.30;99.90
58568;DHT22;44354;46.192;-1.076;2023-04-06T01:16:36;7.20;99.90
58568;DHT22;44354;46.192;-1.076;2023-04-06T01:19:06;7.30;99.90
58568;DHT22;44354;46.192;-1.076;2023-04-06T01:21:32;7.20;99.90
58568;DHT22;44354;46.192;-1.076;2023-04-06T01:23:58;7.20;99.90
58568;DHT22;44354;46.192;-1.076;2023-04-06T01:26:23;7.20;99.90
58568;DHT22;44354;46.192;-1.076;2023-04-06T01:28:49;7.20;99.90
58568;DHT22;44354;46.192;-1.076;2023-04-06T01:31:14;7.20;99.90
58568;DHT22;44354;46.192;-1.076;2023-04-06T01:33:40;7.10;99.90
58568;DHT22;44354;46.192;-1.076;2023-04-06T01:36:06;7.20;99.90
58568;DHT22;44354;46.192;-1.076;2023-04-06T01:38:31;7.10;99.90
58568;DHT22;44354;46.192;-1.076;2023-04-06T01:40:57;7.10;99.90
58568;DHT22;44354;46.192;-1.076;2023-04-06T01:43:23;7.10;99.90
58568;DHT22;44354;46.192;-1.076;2023-04-06T01:45:48;7.10;99.90
58568;DHT22;44354;46.192;-1.076;2023-04-06T01:48:14;7.10;99.90
58568;DHT22;44354;46.192;-1.076;2023-04-06T01:50:39;7.10;99.90
58568;DHT22;44354;46.192;-1.076;2023-04-06T01:53:05;7.10;99.90
58568;DHT22;44354;46.192;-1.076;2023-04-06T01:55:31;7.00;99.90
58568;DHT22;44354;46.192;-1.076;2023-04-06T01:57:56;7.00;99.90
58568;DHT22;44354;46.192;-1.076;2023-04-06T02:00:22;7.00;99.90
58568;DHT22;44354;46.192;-1.076;2023-04-06T02:02:48;6.90;99.90
58568;DHT22;44354;46.192;-1.076;2023-04-06T02:05:13;6.90;99.90
58568;DHT22;44354;46.192;-1.076;2023-04-06T02:07:39;6.80;99.90
58568;DHT22;44354;46.192;-1.076;2023-04-06T02:10:04;6.80;99.90
58568;DHT22;44354;46.192;-1.076;2023-04-06T02:12:36;6.80;99.90
58568;DHT22;44354;46.192;-1.076;2023-04-06T02:15:01;6.90;99.90
58568;DHT22;44354;46.192;-1.076;2023-04-06T02:17:27;6.90;99.90
58568;DHT22;44354;46.192;-1.076;2023-04-06T02:19:52;6.90;99.90
58568;DHT22;44354;46.192;-1.076;2023-04-06T02:22:18;6.90;99.90
58568;DHT22;44354;46.192;-1.076;2023-04-06T02:24:43;6.80;99.90
58568;DHT22;44354;46.192;-1.076;2023-04-06T02:27:09;6.90;99.90
58568;DHT22;44354;46.192;-1.076;2023-04-06T02:29:34;6.90;99.90
58568;DHT22;44354;46.192;-1.076;2023-04-06T02:32:00;6.90;99.90
58568;DHT22;44354;46.192;-1.076;2023-04-06T02:34:26;6.90;99.90
58568;DHT22;44354;46.192;-1.076;2023-04-06T02:36:51;6.90;99.90
58568;DHT22;44354;46.192;-1.076;2023-04-06T02:39:17;6.90;99.90
58568;DHT22;44354;46.192;-1.076;2023-04-06T02:41:42;6.90;99.90
58568;DHT22;44354;46.192;-1.076;2023-04-06T02:44:08;7.00;99.90
58568;DHT22;44354;46.192;-1.076;2023-04-06T02:46:34;7.10;99.90
58568;DHT22;44354;46.192;-1.076;2023-04-06T02:48:59;7.10;99.90
58568;DHT22;44354;46.192;-1.076;2023-04-06T02:51:26;7.10;99.90
58568;DHT22;44354;46.192;-1.076;2023-04-06T02:53:51;7.10;99.90
58568;DHT22;44354;46.192;-1.076;2023-04-06T02:56:17;7.10;99.90
58568;DHT22;44354;46.192;-1.076;2023-04-06T02:58:42;7.10;99.90
58568;DHT22;44354;46.192;-1.076;2023-04-06T03:01:08;7.10;99.90
58568;DHT22;44354;46.192;-1.076;2023-04-06T03:03:33;7.10;99.90
58568;DHT22;44354;46.192;-1.076;2023-04-06T03:05:59;7.10;99.90
58568;DHT22;44354;46.192;-1.076;2023-04-06T03:08:25;7.20;99.90
58568;DHT22;44354;46.192;-1.076;2023-04-06T03:10:51;7.10;99.90
58568;DHT22;44354;46.192;-1.076;2023-04-06T03:13:16;7.00;99.90
58568;DHT22;44354;46.192;-1.076;2023-04-06T03:15:42;7.00;99.90
58568;DHT22;44354;46.192;-1.076;2023-04-06T03:18:07;7.00;99.90
58568;DHT22;44354;46.192;-1.076;2023-04-06T03:20:33;7.10;99.90
58568;DHT22;44354;46.192;-1.076;2023-04-06T03:22:58;7.10;99.90
58568;DHT22;44354;46.192;-1.076;2023-04-06T03:25:24;7.00;99.90
58568;DHT22;44354;46.192;-1.076;2023-04-06T03:27:50;7.10;99.90
58568;DHT22;44354;46.192;-1.076;2023-04-06T03:30:15;7.10;99.90
58568;DHT22;44354;46.192;-1.076;2023-04-06T03:32:45;7.10;99.90
58568;DHT22;44354;46.192;-1.076;2023-04-06T03:35:11;7.20;99.90
58568;DHT22;44354;46.192;-1.076;2023-04-06T03:37:36;7.20;99.90
58568;DHT22;44354;46.192;-1.076;2023-04-06T03:40:02;7.20;99.90
58568;DHT22;44354;46.192;-1.076;2023-04-06T03:42:28;7.30;99.90
58568;DHT22;44354;46.192;-1.076;2023-04-06T03:44:53;7.30;99.90
58568;DHT22;44354;46.192;-1.076;2023-04-06T03:47:19;7.30;99.90
58568;DHT22;44354;46.192;-1.076;2023-04-06T03:49:45;7.30;99.90
58568;DHT22;44354;46.192;-1.076;2023-04-06T03:52:10;7.30;99.90
58568;DHT22;44354;46.192;-1.076;2023-04-06T03:54:36;7.30;99.90
58568;DHT22;44354;46.192;-1.076;2023-04-06T03:57:02;7.30;99.90
58568;DHT22;44354;46.192;-1.076;2023-04-06T03:59:27;7.30;99.90
58568;DHT22;44354;46.192;-1.076;2023-04-06T04:01:53;7.30;99.90
58568;DHT22;44354;46.192;-1.076;2023-04-06T04:04:18;7.30;99.90
58568;DHT22;44354;46.192;-1.076;2023-04-06T04:06:44;7.30;99.90
58568;DHT22;44354;46.192;-1.076;2023-04-06T04:09:10;7.30;99.90
58568;DHT22;44354;46.192;-1.076;2023-04-06T04:11:35;7.30;99.90
58568;DHT22;44354;46.192;-1.076;2023-04-06T04:14:01;7.30;99.90
58568;DHT22;44354;46.192;-1.076;2023-04-06T04:16:26;7.30;99.90
58568;DHT22;44354;46.192;-1.076;2023-04-06T04:18:52;7.30;99.90
58568;DHT22;44354;46.192;-1.076;2023-04-06T04:21:17;7.30;99.90
58568;DHT22;44354;46.192;-1.076;2023-04-06T04:23:43;7.30;99.90
58568;DHT22;44354;46.192;-1.076;2023-04-06T04:26:08;7.40;99.90
58568;DHT22;44354;46.192;-1.076;2023-04-06T04:28:34;7.40;99.90
58568;DHT22;44354;46.192;-1.076;2023-04-06T04:31:00;7.40;99.90
58568;DHT22;44354;46.192;-1.076;2023-04-06T04:33:25;7.40;99.90
58568;DHT22;44354;46.192;-1.076;2023-04-06T04:35:51;7.40;99.90
58568;DHT22;44354;46.192;-1.076;2023-04-06T04:38:16;7.50;99.90
58568;DHT22;44354;46.192;-1.076;2023-04-06T04:40:42;7.50;99.90
58568;DHT22;44354;46.192;-1.076;2023-04-06T04:43:07;7.50;99.90
58568;DHT22;44354;46.192;-1.076;2023-04-06T04:45:33;7.50;99.90
58568;DHT22;44354;46.192;-1.076;2023-04-06T04:47:58;7.50;99.90
58568;DHT22;44354;46.192;-1.076;2023-04-06T04:50:24;7.50;99.90
58568;DHT22;44354;46.192;-1.076;2023-04-06T04:52:50;7.50;99.90
58568;DHT22;44354;46.192;-1.076;2023-04-06T04:55:16;7.50;99.90
58568;DHT22;44354;46.192;-1.076;2023-04-06T04:57:42;7.60;99.90
58568;DHT22;44354;46.192;-1.076;2023-04-06T05:00:08;7.60;99.90
58568;DHT22;44354;46.192;-1.076;2023-04-06T05:02:34;7.60;99.90
58568;DHT22;44354;46.192;-1.076;2023-04-06T05:04:59;7.50;99.90
58568;DHT22;44354;46.192;-1.076;2023-04-06T05:07:25;7.60;99.90
58568;DHT22;44354;46.192;-1.076;2023-04-06T05:09:50;7.60;99.90
58568;DHT22;44354;46.192;-1.076;2023-04-06T05:12:17;7.60;99.90
58568;DHT22;44354;46.192;-1.076;2023-04-06T05:14:43;7.70;99.90
58568;DHT22;44354;46.192;-1.076;2023-04-06T05:17:08;7.70;99.90
58568;DHT22;44354;46.192;-1.076;2023-04-06T05:19:34;7.80;99.90
58568;DHT22;44354;46.192;-1.076;2023-04-06T05:22:00;7.80;99.90
58568;DHT22;44354;46.192;-1.076;2023-04-06T05:24:25;7.80;99.90
58568;DHT22;44354;46.192;-1.076;2023-04-06T05:26:51;7.70;99.90
58568;DHT22;44354;46.192;-1.076;2023-04-06T05:29:16;7.70;99.90
58568;DHT22;44354;46.192;-1.076;2023-04-06T05:31:43;7.70;99.90
58568;DHT22;44354;46.192;-1.076;2023-04-06T05:34:09;7.80;99.90
58568;DHT22;44354;46.192;-1.076;2023-04-06T05:36:34;7.80;99.90
58568;DHT22;44354;46.192;-1.076;2023-04-06T05:39:00;7.80;99.90
58568;DHT22;44354;46.192;-1.076;2023-04-06T05:41:25;7.80;99.90
58568;DHT22;44354;46.192;-1.076;2023-04-06T05:43:51;7.80;99.90
58568;DHT22;44354;46.192;-1.076;2023-04-06T05:46:17;7.80;99.90
58568;DHT22;44354;46.192;-1.076;2023-04-06T05:48:43;7.80;99.90
58568;DHT22;44354;46.192;-1.076;2023-04-06T05:51:08;7.80;99.90
58568;DHT22;44354;46.192;-1.076;2023-04-06T05:53:34;7.80;99.90
58568;DHT22;44354;46.192;-1.076;2023-04-06T05:56:02;7.80;99.90
58568;DHT22;44354;46.192;-1.076;2023-04-06T05:58:28;7.80;99.90
58568;DHT22;44354;46.192;-1.076;2023-04-06T06:01:00;7.80;99.90
58568;DHT22;44354;46.192;-1.076;2023-04-06T06:03:26;7.80;99.90
58568;DHT22;44354;46.192;-1.076;2023-04-06T06:05:51;7.80;99.90
58568;DHT22;44354;46.192;-1.076;2023-04-06T06:08:17;7.90;99.90
58568;DHT22;44354;46.192;-1.076;2023-04-06T06:10:42;7.90;99.90
58568;DHT22;44354;46.192;-1.076;2023-04-06T06:13:08;8.00;99.90
58568;DHT22;44354;46.192;-1.076;2023-04-06T06:15:34;8.00;99.90
58568;DHT22;44354;46.192;-1.076;2023-04-06T06:17:59;8.00;99.90
58568;DHT22;44354;46.192;-1.076;2023-04-06T06:20:25;8.10;99.90
58568;DHT22;44354;46.192;-1.076;2023-04-06T06:22:51;8.20;99.90
58568;DHT22;44354;46.192;-1.076;2023-04-06T06:25:17;8.20;99.90
58568;DHT22;44354;46.192;-1.076;2023-04-06T06:27:43;8.20;99.90
58568;DHT22;44354;46.192;-1.076;2023-04-06T06:30:08;8.30;99.90
58568;DHT22;44354;46.192;-1.076;2023-04-06T06:32:34;8.40;99.90
58568;DHT22;44354;46.192;-1.076;2023-04-06T06:34:59;8.40;99.90
58568;DHT22;44354;46.192;-1.076;2023-04-06T06:37:25;8.50;99.90
58568;DHT22;44354;46.192;-1.076;2023-04-06T06:39:50;8.50;99.90
58568;DHT22;44354;46.192;-1.076;2023-04-06T06:42:16;8.60;99.90
58568;DHT22;44354;46.192;-1.076;2023-04-06T06:44:41;8.80;99.90
58568;DHT22;44354;46.192;-1.076;2023-04-06T06:47:07;8.90;99.90
58568;DHT22;44354;46.192;-1.076;2023-04-06T06:49:32;8.90;99.90
58568;DHT22;44354;46.192;-1.076;2023-04-06T06:51:58;8.90;99.90
58568;DHT22;44354;46.192;-1.076;2023-04-06T06:54:23;9.00;99.90
58568;DHT22;44354;46.192;-1.076;2023-04-06T06:56:49;9.10;99.90
58568;DHT22;44354;46.192;-1.076;2023-04-06T06:59:14;9.10;99.90
58568;DHT22;44354;46.192;-1.076;2023-04-06T07:01:41;9.10;99.90
58568;DHT22;44354;46.192;-1.076;2023-04-06T07:04:06;9.10;99.90
58568;DHT22;44354;46.192;-1.076;2023-04-06T07:06:36;9.10;99.90
58568;DHT22;44354;46.192;-1.076;2023-04-06T07:09:02;9.10;99.90
58568;DHT22;44354;46.192;-1.076;2023-04-06T07:11:28;9.10;99.90
58568;DHT22;44354;46.192;-1.076;2023-04-06T07:13:54;9.10;99.90
58568;DHT22;44354;46.192;-1.076;2023-04-06T07:16:20;9.20;99.90
58568;DHT22;44354;46.192;-1.076;2023-04-06T07:18:45;9.20;99.90
58568;DHT22;44354;46.192;-1.076;2023-04-06T07:21:11;9.20;99.90
58568;DHT22;44354;46.192;-1.076;2023-04-06T07:23:37;9.20;99.90
58568;DHT22;44354;46.192;-1.076;2023-04-06T07:26:02;9.30;99.90
58568;DHT22;44354;46.192;-1.076;2023-04-06T07:28:28;9.30;99.90
58568;DHT22;44354;46.192;-1.076;2023-04-06T07:30:54;9.40;99.90
58568;DHT22;44354;46.192;-1.076;2023-04-06T07:33:19;9.50;99.90
58568;DHT22;44354;46.192;-1.076;2023-04-06T07:35:45;9.60;99.90
58568;DHT22;44354;46.192;-1.076;2023-04-06T07:38:11;9.60;99.90
58568;DHT22;44354;46.192;-1.076;2023-04-06T07:40:36;9.80;99.90
58568;DHT22;44354;46.192;-1.076;2023-04-06T07:43:02;9.90;99.90
58568;DHT22;44354;46.192;-1.076;2023-04-06T07:45:28;10.00;99.90
58568;DHT22;44354;46.192;-1.076;2023-04-06T07:47:53;10.20;99.90
58568;DHT22;44354;46.192;-1.076;2023-04-06T07:50:19;10.30;99.90
58568;DHT22;44354;46.192;-1.076;2023-04-06T07:52:45;10.40;99.90
58568;DHT22;44354;46.192;-1.076;2023-04-06T07:55:10;10.60;99.90
58568;DHT22;44354;46.192;-1.076;2023-04-06T07:57:36;10.70;99.90
58568;DHT22;44354;46.192;-1.076;2023-04-06T08:00:01;10.60;99.90
58568;DHT22;44354;46.192;-1.076;2023-04-06T08:02:29;10.70;99.90
58568;DHT22;44354;46.192;-1.076;2023-04-06T08:04:54;10.90;99.90
58568;DHT22;44354;46.192;-1.076;2023-04-06T08:07:20;11.00;99.90
58568;DHT22;44354;46.192;-1.076;2023-04-06T08:09:45;11.10;99.90
58568;DHT22;44354;46.192;-1.076;2023-04-06T08:12:11;11.20;99.90
58568;DHT22;44354;46.192;-1.076;2023-04-06T08:14:36;11.30;99.90
58568;DHT22;44354;46.192;-1.076;2023-04-06T08:17:02;11.40;99.90
58568;DHT22;44354;46.192;-1.076;2023-04-06T08:19:28;11.60;99.90
58568;DHT22;44354;46.192;-1.076;2023-04-06T08:21:53;11.60;99.90
58568;DHT22;44354;46.192;-1.076;2023-04-06T08:24:19;11.70;99.90
58568;DHT22;44354;46.192;-1.076;2023-04-06T08:26:44;12.00;99.90
58568;DHT22;44354;46.192;-1.076;2023-04-06T08:29:10;12.00;99.90
58568;DHT22;44354;46.192;-1.076;2023-04-06T08:31:37;12.20;99.90
58568;DHT22;44354;46.192;-1.076;2023-04-06T08:34:04;12.20;99.90
58568;DHT22;44354;46.192;-1.076;2023-04-06T08:36:30;11.90;99.90
58568;DHT22;44354;46.192;-1.076;2023-04-06T08:38:56;11.70;99.90
58568;DHT22;44354;46.192;-1.076;2023-04-06T08:41:21;11.80;99.90
58568;DHT22;44354;46.192;-1.076;2023-04-06T08:43:48;11.70;99.90
58568;DHT22;44354;46.192;-1.076;2023-04-06T08:46:14;11.80;99.90
58568;DHT22;44354;46.192;-1.076;2023-04-06T08:48:41;12.10;99.90
58568;DHT22;44354;46.192;-1.076;2023-04-06T08:51:07;12.00;99.90
58568;DHT22;44354;46.192;-1.076;2023-04-06T08:53:33;12.00;99.90
58568;DHT22;44354;46.192;-1.076;2023-04-06T08:55:58;12.10;99.90
58568;DHT22;44354;46.192;-1.076;2023-04-06T08:58:25;12.30;99.90
58568;DHT22;44354;46.192;-1.076;2023-04-06T09:00:51;12.30;99.90
58568;DHT22;44354;46.192;-1.076;2023-04-06T09:03:17;12.50;99.90
58568;DHT22;44354;46.192;-1.076;2023-04-06T09:05:43;12.60;99.90
58568;DHT22;44354;46.192;-1.076;2023-04-06T09:08:10;12.50;99.90
58568;DHT22;44354;46.192;-1.076;2023-04-06T09:10:36;12.30;99.90
58568;DHT22;44354;46.192;-1.076;2023-04-06T09:13:05;12.50;99.90
58568;DHT22;44354;46.192;-1.076;2023-04-06T09:15:32;12.60;99.90
58568;DHT22;44354;46.192;-1.076;2023-04-06T09:17:57;12.70;99.90
58568;DHT22;44354;46.192;-1.076;2023-04-06T09:20:23;12.70;99.90
58568;DHT22;44354;46.192;-1.076;2023-04-06T09:22:51;12.50;99.90
58568;DHT22;44354;46.192;-1.076;2023-04-06T09:25:18;12.50;99.90
58568;DHT22;44354;46.192;-1.076;2023-04-06T09:27:44;12.30;99.90
58568;DHT22;44354;46.192;-1.076;2023-04-06T09:30:10;12.40;99.90
58568;DHT22;44354;46.192;-1.076;2023-04-06T09:32:49;12.90;99.90
58568;DHT22;44354;46.192;-1.076;2023-04-06T09:35:15;13.10;99.90
58568;DHT22;44354;46.192;-1.076;2023-04-06T09:37:41;12.90;99.90
58568;DHT22;44354;46.192;-1.076;2023-04-06T09:40:07;13.00;99.90
58568;DHT22;44354;46.192;-1.076;2023-04-06T09:42:33;12.90;99.90
58568;DHT22;44354;46.192;-1.076;2023-04-06T09:45:00;13.00;99.90
58568;DHT22;44354;46.192;-1.076;2023-04-06T09:47:25;13.20;99.90
58568;DHT22;44354;46.192;-1.076;2023-04-06T09:49:54;13.50;99.90
58568;DHT22;44354;46.192;-1.076;2023-04-06T09:52:20;13.30;99.90
58568;DHT22;44354;46.192;-1.076;2023-04-06T09:54:47;13.40;99.90
58568;DHT22;44354;46.192;-1.076;2023-04-06T09:57:21;13.40;99.90
58568;DHT22;44354;46.192;-1.076;2023-04-06T09:59:51;13.60;99.90
58568;DHT22;44354;46.192;-1.076;2023-04-06T10:04:53;13.50;99.90
58568;DHT22;44354;46.192;-1.076;2023-04-06T10:07:20;13.80;99.90
58568;DHT22;44354;46.192;-1.076;2023-04-06T10:09:46;13.60;99.90
58568;DHT22;44354;46.192;-1.076;2023-04-06T10:12:13;13.40;99.90
58568;DHT22;44354;46.192;-1.076;2023-04-06T10:14:38;13.60;99.90
58568;DHT22;44354;46.192;-1.076;2023-04-06T10:17:04;13.70;99.90
58568;DHT22;44354;46.192;-1.076;2023-04-06T10:20:04;13.80;99.90
58568;DHT22;44354;46.192;-1.076;2023-04-06T10:23:04;13.30;99.90
58568;DHT22;44354;46.192;-1.076;2023-04-06T10:25:16;13.30;99.90
58568;DHT22;44354;46.192;-1.076;2023-04-06T10:27:41;13.40;99.90
58568;DHT22;44354;46.192;-1.076;2023-04-06T10:30:07;13.50;99.90
58568;DHT22;44354;46.192;-1.076;2023-04-06T10:32:33;13.50;99.90
58568;DHT22;44354;46.192;-1.076;2023-04-06T10:35:08;13.50;99.90
58568;DHT22;44354;46.192;-1.076;2023-04-06T10:37:50;13.40;99.90
58568;DHT22;44354;46.192;-1.076;2023-04-06T10:40:23;13.40;99.90
58568;DHT22;44354;46.192;-1.076;2023-04-06T10:42:49;13.50;99.90
58568;DHT22;44354;46.192;-1.076;2023-04-06T10:45:25;13.80;99.90
58568;DHT22;44354;46.192;-1.076;2023-04-06T10:47:54;13.90;99.90
58568;DHT22;44354;46.192;-1.076;2023-04-06T10:50:20;14.20;99.90
58568;DHT22;44354;46.192;-1.076;2023-04-06T10:52:46;14.10;99.90
58568;DHT22;44354;46.192;-1.076;2023-04-06T10:55:15;14.10;99.90
58568;DHT22;44354;46.192;-1.076;2023-04-06T10:57:41;14.20;99.90
58568;DHT22;44354;46.192;-1.076;2023-04-06T11:00:07;14.00;99.90
58568;DHT22;44354;46.192;-1.076;2023-04-06T11:02:34;14.10;99.90
58568;DHT22;44354;46.192;-1.076;2023-04-06T11:05:03;13.70;99.90
58568;DHT22;44354;46.192;-1.076;2023-04-06T11:07:28;13.90;99.90
58568;DHT22;44354;46.192;-1.076;2023-04-06T11:09:55;13.90;99.90
58568;DHT22;44354;46.192;-1.076;2023-04-06T11:12:25;14.00;99.90
58568;DHT22;44354;46.192;-1.076;2023-04-06T11:17:25;13.90;99.90
58568;DHT22;44354;46.192;-1.076;2023-04-06T11:19:50;13.50;99.90
58568;DHT22;44354;46.192;-1.076;2023-04-06T11:22:16;13.60;99.90
58568;DHT22;44354;46.192;-1.076;2023-04-06T11:24:41;13.80;99.90
58568;DHT22;44354;46.192;-1.076;2023-04-06T11:27:07;13.80;99.90
58568;DHT22;44354;46.192;-1.076;2023-04-06T11:29:33;14.10;99.90
58568;DHT22;44354;46.192;-1.076;2023-04-06T11:34:31;14.30;99.90
58568;DHT22;44354;46.192;-1.076;2023-04-06T11:36:58;14.30;99.90
58568;DHT22;44354;46.192;-1.076;2023-04-06T11:39:24;14.10;99.90
58568;DHT22;44354;46.192;-1.076;2023-04-06T11:41:51;14.00;99.90
58568;DHT22;44354;46.192;-1.076;2023-04-06T11:44:29;14.30;99.90
58568;DHT22;44354;46.192;-1.076;2023-04-06T11:46:56;14.50;99.90
58568;DHT22;44354;46.192;-1.076;2023-04-06T11:49:22;14.60;99.90
58568;DHT22;44354;46.192;-1.076;2023-04-06T11:51:47;14.60;99.90
58568;DHT22;44354;46.192;-1.076;2023-04-06T11:54:13;14.40;99.90
58568;DHT22;44354;46.192;-1.076;2023-04-06T11:56:38;14.50;99.90
58568;DHT22;44354;46.192;-1.076;2023-04-06T11:59:04;14.10;99.90
58568;DHT22;44354;46.192;-1.076;2023-04-06T12:01:29;14.10;99.90
58568;DHT22;44354;46.192;-1.076;2023-04-06T12:03:55;14.20;99.90
58568;DHT22;44354;46.192;-1.076;2023-04-06T12:06:21;14.00;99.90
58568;DHT22;44354;46.192;-1.076;2023-04-06T12:08:46;14.30;99.90
58568;DHT22;44354;46.192;-1.076;2023-04-06T12:11:12;14.20;99.90
58568;DHT22;44354;46.192;-1.076;2023-04-06T12:13:38;14.30;99.90
58568;DHT22;44354;46.192;-1.076;2023-04-06T12:16:04;14.30;99.90
58568;DHT22;44354;46.192;-1.076;2023-04-06T12:18:29;14.20;99.90
58568;DHT22;44354;46.192;-1.076;2023-04-06T12:20:55;14.40;99.90
58568;DHT22;44354;46.192;-1.076;2023-04-06T12:23:21;14.40;99.90
58568;DHT22;44354;46.192;-1.076;2023-04-06T12:25:46;14.40;99.90
58568;DHT22;44354;46.192;-1.076;2023-04-06T12:28:12;14.60;99.90
58568;DHT22;44354;46.192;-1.076;2023-04-06T12:30:37;14.70;99.90
58568;DHT22;44354;46.192;-1.076;2023-04-06T12:33:03;14.80;99.90
58568;DHT22;44354;46.192;-1.076;2023-04-06T12:35:32;14.70;99.90
58568;DHT22;44354;46.192;-1.076;2023-04-06T12:37:58;14.40;99.90
58568;DHT22;44354;46.192;-1.076;2023-04-06T12:40:23;14.20;99.90
58568;DHT22;44354;46.192;-1.076;2023-04-06T12:42:49;14.20;99.90
58568;DHT22;44354;46.192;-1.076;2023-04-06T12:45:15;14.20;99.90
58568;DHT22;44354;46.192;-1.076;2023-04-06T12:47:40;14.20;99.90
58568;DHT22;44354;46.192;-1.076;2023-04-06T12:50:06;14.40;99.90
58568;DHT22;44354;46.192;-1.076;2023-04-06T12:52:32;14.20;99.90
58568;DHT22;44354;46.192;-1.076;2023-04-06T12:55:00;14.30;99.90
58568;DHT22;44354;46.192;-1.076;2023-04-06T12:57:26;14.40;99.90
58568;DHT22;44354;46.192;-1.076;2023-04-06T12:59:52;14.70;99.90
58568;DHT22;44354;46.192;-1.076;2023-04-06T13:02:18;14.50;99.90
58568;DHT22;44354;46.192;-1.076;2023-04-06T13:04:45;14.80;99.90
58568;DHT22;44354;46.192;-1.076;2023-04-06T13:07:11;14.80;99.90
58568;DHT22;44354;46.192;-1.076;2023-04-06T13:09:36;14.80;99.90
58568;DHT22;44354;46.192;-1.076;2023-04-06T13:12:02;14.50;99.90
58568;DHT22;44354;46.192;-1.076;2023-04-06T13:14:27;14.40;99.90
58568;DHT22;44354;46.192;-1.076;2023-04-06T13:16:53;14.40;99.90
58568;DHT22;44354;46.192;-1.076;2023-04-06T13:19:18;14.50;99.90
58568;DHT22;44354;46.192;-1.076;2023-04-06T13:21:44;14.40;99.90
58568;DHT22;44354;46.192;-1.076;2023-04-06T13:24:10;14.30;99.90
58568;DHT22;44354;46.192;-1.076;2023-04-06T13:26:35;14.10;99.90
58568;DHT22;44354;46.192;-1.076;2023-04-06T13:29:01;14.10;99.90
58568;DHT22;44354;46.192;-1.076;2023-04-06T13:31:28;14.30;99.90
58568;DHT22;44354;46.192;-1.076;2023-04-06T13:33:53;14.30;99.90
58568;DHT22;44354;46.192;-1.076;2023-04-06T13:36:19;14.40;99.90
58568;DHT22;44354;46.192;-1.076;2023-04-06T13:38:44;14.40;99.90
58568;DHT22;44354;46.192;-1.076;2023-04-06T13:41:17;14.10;99.90
58568;DHT22;44354;46.192;-1.076;2023-04-06T13:43:42;14.30;99.90
58568;DHT22;44354;46.192;-1.076;2023-04-06T13:46:08;14.30;99.90
58568;DHT22;44354;46.192;-1.076;2023-04-06T13:48:33;14.50;99.90
58568;DHT22;44354;46.192;-1.076;2023-04-06T13:51:07;14.50;99.90
58568;DHT22;44354;46.192;-1.076;2023-04-06T13:53:33;14.60;99.90
58568;DHT22;44354;46.192;-1.076;2023-04-06T13:55:58;14.80;99.90
58568;DHT22;44354;46.192;-1.076;2023-04-06T13:58:24;14.80;99.90
58568;DHT22;44354;46.192;-1.076;2023-04-06T14:00:50;14.80;99.90
58568;DHT22;44354;46.192;-1.076;2023-04-06T14:03:16;14.80;99.90
58568;DHT22;44354;46.192;-1.076;2023-04-06T14:05:41;14.80;99.90
58568;DHT22;44354;46.192;-1.076;2023-04-06T14:08:07;14.90;99.90
58568;DHT22;44354;46.192;-1.076;2023-04-06T14:10:36;14.80;99.90
58568;DHT22;44354;46.192;-1.076;2023-04-06T14:13:02;14.80;99.90
58568;DHT22;44354;46.192;-1.076;2023-04-06T14:15:27;14.60;99.90
58568;DHT22;44354;46.192;-1.076;2023-04-06T14:17:54;14.40;99.90
58568;DHT22;44354;46.192;-1.076;2023-04-06T14:20:19;14.40;99.90
58568;DHT22;44354;46.192;-1.076;2023-04-06T14:22:45;14.40;99.90
58568;DHT22;44354;46.192;-1.076;2023-04-06T14:25:11;14.60;99.90
58568;DHT22;44354;46.192;-1.076;2023-04-06T14:27:38;14.50;99.90
58568;DHT22;44354;46.192;-1.076;2023-04-06T14:30:03;14.40;99.90
58568;DHT22;44354;46.192;-1.076;2023-04-06T14:32:29;14.20;99.90
58568;DHT22;44354;46.192;-1.076;2023-04-06T14:34:54;14.20;99.90
58568;DHT22;44354;46.192;-1.076;2023-04-06T14:37:20;14.30;99.90
58568;DHT22;44354;46.192;-1.076;2023-04-06T14:39:47;14.40;99.90
58568;DHT22;44354;46.192;-1.076;2023-04-06T14:42:12;14.40;99.90
58568;DHT22;44354;46.192;-1.076;2023-04-06T14:44:38;14.70;99.90
58568;DHT22;44354;46.192;-1.076;2023-04-06T14:47:08;14.60;99.90
58568;DHT22;44354;46.192;-1.076;2023-04-06T14:49:34;14.70;99.90
58568;DHT22;44354;46.192;-1.076;2023-04-06T14:51:59;14.60;99.90
58568;DHT22;44354;46.192;-1.076;2023-04-06T14:54:25;14.50;99.90
58568;DHT22;44354;46.192;-1.076;2023-04-06T14:56:50;14.50;99.90
58568;DHT22;44354;46.192;-1.076;2023-04-06T14:59:16;14.40;99.90
58568;DHT22;44354;46.192;-1.076;2023-04-06T15:01:41;14.20;99.90
58568;DHT22;44354;46.192;-1.076;2023-04-06T15:04:07;14.30;99.90
58568;DHT22;44354;46.192;-1.076;2023-04-06T15:06:32;14.30;99.90
58568;DHT22;44354;46.192;-1.076;2023-04-06T15:08:58;14.30;99.90
58568;DHT22;44354;46.192;-1.076;2023-04-06T15:11:24;14.50;99.90
58568;DHT22;44354;46.192;-1.076;2023-04-06T15:13:50;14.20;99.90
58568;DHT22;44354;46.192;-1.076;2023-04-06T15:16:16;14.30;99.90
58568;DHT22;44354;46.192;-1.076;2023-04-06T15:18:41;14.40;99.90
58568;DHT22;44354;46.192;-1.076;2023-04-06T15:21:07;14.30;99.90
58568;DHT22;44354;46.192;-1.076;2023-04-06T15:23:33;14.20;99.90